createdAt,value
2023-04-29T00:00:46.582Z,-44
2023-04-29T00:25:46.572Z,-45
2023-04-29T00:30:46.560Z,-44
2023-04-29T00:35:46.584Z,-44
2023-04-29T00:40:46.592Z,-46
2023-04-29T00:50:46.551Z,-45
2023-04-29T00:55:46.596Z,-46
2023-04-29T01:05:46.566Z,-47
2023-04-29T01:10:46.551Z,-46
2023-04-29T01:15:46.659Z,-46
2023-04-29T01:25:46.582Z,-46
2023-04-29T01:40:46.583Z,-45
2023-04-29T01:45:46.597Z,-46
2023-04-29T01:55:46.583Z,-45
2023-04-29T02:05:46.562Z,-44
2023-04-29T02:10:46.586Z,-45
2023-04-29T02:20:46.608Z,-44
2023-04-29T02:30:46.614Z,-44
2023-04-29T02:40:46.595Z,-45
2023-04-29T03:00:46.613Z,-44
2023-04-29T03:10:46.614Z,-44
2023-04-29T03:15:46.622Z,-45
2023-04-29T03:25:46.676Z,-45
2023-04-29T03:45:46.627Z,-46
2023-04-29T03:55:46.642Z,-47
2023-04-29T04:00:46.607Z,-44
2023-04-29T04:20:46.594Z,-44
2023-04-29T04:30:46.641Z,-44
2023-04-29T04:35:46.614Z,-45
2023-04-29T04:45:46.679Z,-44
2023-04-29T04:55:46.590Z,-44
2023-04-29T05:05:46.627Z,-45
2023-04-29T05:15:46.609Z,-44
2023-04-29T05:20:46.615Z,-45
2023-04-29T05:35:46.594Z,-42
2023-04-29T05:45:46.651Z,-44
2023-04-29T05:55:47.641Z,-44
2023-04-29T06:00:46.655Z,-44
2023-04-29T06:05:47.034Z,-45
2023-04-29T06:10:46.634Z,-44
2023-04-29T06:20:46.583Z,-44
2023-04-29T06:25:46.639Z,-45
2023-04-29T06:35:46.597Z,-45
2023-04-29T06:55:46.604Z,-46
2023-04-29T07:00:46.699Z,-46
2023-04-29T07:10:46.610Z,-44
2023-04-29T07:15:46.632Z,-46
2023-04-29T07:20:46.659Z,-44
2023-04-29T07:30:46.666Z,-44
2023-04-29T07:35:46.650Z,-45
2023-04-29T07:45:46.653Z,-45
2023-04-29T07:55:46.638Z,-43
2023-04-29T08:15:46.982Z,-45
2023-04-29T08:20:46.648Z,-45
2023-04-29T08:30:46.613Z,-45
2023-04-29T08:35:46.638Z,-45
2023-04-29T08:45:46.680Z,-46
2023-04-29T08:50:46.623Z,-44
2023-04-29T09:00:46.643Z,-45
2023-04-29T09:10:46.607Z,-45
2023-04-29T09:30:46.647Z,-44
2023-04-29T09:40:58.908Z,-48
2023-04-29T09:45:46.670Z,-46
2023-04-29T09:50:46.619Z,-45
2023-04-29T10:00:46.619Z,-47
2023-04-29T10:05:46.622Z,-44
2023-04-29T10:10:46.626Z,-43
2023-04-29T10:20:46.619Z,-45
2023-04-29T10:25:46.625Z,-43
2023-04-29T10:30:46.624Z,-45
2023-04-29T10:50:46.621Z,-45
2023-04-29T11:00:46.638Z,-45
2023-04-29T11:05:46.621Z,-44
2023-04-29T11:10:46.646Z,-44
2023-04-29T11:20:46.630Z,-44
2023-04-29T11:25:46.631Z,-46
2023-04-29T11:30:46.655Z,-44
2023-04-29T11:35:46.653Z,-44
2023-04-29T11:45:46.695Z,-45
2023-04-29T12:10:46.636Z,-45
2023-04-29T12:15:46.703Z,-43
2023-04-29T12:25:46.657Z,-45
2023-04-29T12:35:46.632Z,-45
2023-04-29T12:45:46.623Z,-45
2023-04-29T12:50:46.657Z,-47
2023-04-29T13:00:46.680Z,-44
2023-04-29T13:10:46.646Z,-46
2023-04-29T13:25:46.680Z,-45
2023-04-29T13:35:46.660Z,-45
2023-04-29T13:40:47.242Z,-44
2023-04-29T14:01:11.322Z,-46
2023-04-29T14:10:46.668Z,-44
2023-04-29T14:15:46.739Z,-45
2023-04-29T14:25:46.681Z,-45
2023-04-29T14:45:46.717Z,-47
2023-04-29T14:55:46.656Z,-44
2023-04-29T15:00:46.698Z,-43
2023-04-29T15:05:46.666Z,-45
2023-04-29T15:15:46.729Z,-44
2023-04-29T15:20:46.679Z,-44
2023-04-29T15:30:46.687Z,-45
2023-04-29T15:40:46.678Z,-45
2023-04-29T15:45:46.723Z,-49
2023-04-29T16:05:46.693Z,-50
2023-04-29T16:15:46.679Z,-49
2023-04-29T16:20:46.719Z,-50
2023-04-29T16:30:46.716Z,-49
2023-04-29T16:40:47.829Z,-49
2023-04-29T16:50:47.965Z,-48
2023-04-29T17:00:46.713Z,-49
2023-04-29T17:20:48.753Z,-49
2023-04-29T17:25:46.711Z,-50
2023-04-29T17:30:46.710Z,-48
2023-04-29T17:40:46.692Z,-47
2023-04-29T17:45:46.778Z,-49
2023-04-29T17:55:46.705Z,-49
2023-04-29T18:00:46.799Z,-49
2023-04-29T18:10:46.760Z,-47
2023-04-29T18:20:46.732Z,-49
2023-04-29T18:40:46.726Z,-49
2023-04-29T18:50:46.709Z,-50
2023-04-29T18:55:46.748Z,-47
2023-04-29T19:00:46.724Z,-48
2023-04-29T19:10:46.718Z,-49
2023-04-29T19:15:46.750Z,-47
2023-04-29T19:25:46.726Z,-49
2023-04-29T19:35:46.755Z,-49
2023-04-29T19:55:46.750Z,-49
2023-04-29T20:05:46.745Z,-51
2023-04-29T20:10:46.723Z,-48
2023-04-29T20:20:46.786Z,-50
2023-04-29T20:30:46.766Z,-47
2023-04-29T20:40:46.770Z,-46
2023-04-29T20:50:46.759Z,-49
2023-04-29T21:15:46.851Z,-48
2023-04-29T21:25:46.775Z,-46
2023-04-29T21:35:48.278Z,-49
2023-04-29T21:40:46.761Z,-49
2023-04-29T21:45:46.815Z,-49
2023-04-29T21:50:46.805Z,-50
2023-04-29T22:00:46.786Z,-50
2023-04-29T22:10:46.793Z,-47
2023-04-29T22:35:46.808Z,-48
2023-04-29T22:40:47.445Z,-48
2023-04-29T22:45:46.836Z,-48
2023-04-29T22:55:46.836Z,-47
2023-04-29T23:05:46.795Z,-48
2023-04-29T23:10:46.841Z,-49
2023-04-29T23:20:46.825Z,-48
2023-04-29T23:25:46.978Z,-50
2023-04-29T23:35:46.830Z,-48
2023-04-29T23:50:46.820Z,-46
2023-04-29T23:55:46.809Z,-49
